createdAt,value
2018-07-12T04:00:30.568Z,872.00
2018-07-12T04:01:30.517Z,944.00
2018-07-12T04:02:30.532Z,1056.00
2018-07-12T04:03:30.497Z,1220.00
2018-07-12T04:04:30.484Z,1416.00
2018-07-12T04:05:30.499Z,1588.00
2018-07-12T04:06:30.464Z,1776.00
2018-07-12T04:07:30.447Z,1916.00
2018-07-12T04:08:30.435Z,1836.00
2018-07-12T04:09:30.430Z,1720.00
2018-07-12T04:10:30.487Z,1660.00
2018-07-12T04:11:30.451Z,1600.00
2018-07-12T04:12:30.389Z,1548.00
2018-07-12T04:13:30.412Z,1496.00
2018-07-12T04:14:30.391Z,1380.00
2018-07-12T04:15:30.374Z,1368.00
2018-07-12T04:16:30.358Z,1380.00
2018-07-12T04:17:30.339Z,1392.00
2018-07-12T04:18:30.320Z,1488.00
2018-07-12T04:19:30.309Z,1424.00
2018-07-12T04:20:30.321Z,1384.00
2018-07-12T04:21:30.295Z,1416.00
2018-07-12T04:22:30.282Z,1472.00
2018-07-12T04:23:30.263Z,1448.00
2018-07-12T04:24:30.277Z,1260.00
2018-07-12T04:25:30.309Z,1216.00
2018-07-12T04:26:30.289Z,1244.00
2018-07-12T04:27:30.260Z,1172.00
2018-07-12T04:28:30.208Z,1136.00
2018-07-12T04:29:30.195Z,1368.00
2018-07-12T04:30:30.202Z,1464.00
2018-07-12T04:31:30.171Z,1400.00
2018-07-12T04:32:30.163Z,1456.00
2018-07-12T04:33:30.150Z,1336.00
2018-07-12T04:34:30.179Z,1288.00
2018-07-12T04:35:30.142Z,1364.00
2018-07-12T04:36:30.137Z,1480.00
2018-07-12T04:37:30.108Z,1444.00
2018-07-12T04:38:30.095Z,1308.00
2018-07-12T04:39:30.084Z,1244.00
2018-07-12T04:40:30.093Z,1400.00
2018-07-12T04:41:30.058Z,1648.00
2018-07-12T04:42:30.051Z,1904.00
2018-07-12T04:43:30.051Z,2008.00
2018-07-12T04:44:30.036Z,1848.00
2018-07-12T04:45:30.029Z,1740.00
2018-07-12T04:46:30.007Z,1628.00
2018-07-12T04:47:29.993Z,1400.00
2018-07-12T04:48:29.986Z,1384.00
2018-07-12T04:49:29.968Z,1440.00
2018-07-12T04:50:30.008Z,1480.00
2018-07-12T04:51:29.946Z,1556.00
2018-07-12T04:52:29.937Z,1732.00
2018-07-12T04:53:29.924Z,1956.00
2018-07-12T04:54:29.914Z,2048.00
2018-07-12T04:55:29.922Z,1992.00
2018-07-12T04:56:29.903Z,1936.00
2018-07-12T04:57:29.881Z,2040.00
2018-07-12T04:58:29.921Z,2032.00
2018-07-12T04:59:29.872Z,2016.00
2018-07-12T05:00:29.900Z,2004.00
2018-07-12T05:01:29.838Z,1932.00
2018-07-12T05:02:29.823Z,1960.00
2018-07-12T05:03:29.811Z,1904.00
2018-07-12T05:04:29.805Z,1828.00
2018-07-12T05:05:29.794Z,1868.00
2018-07-12T05:06:29.789Z,2004.00
2018-07-12T05:07:29.774Z,2040.00
2018-07-12T05:08:29.802Z,1872.00
2018-07-12T05:09:29.744Z,1596.00
2018-07-12T05:10:29.733Z,1400.00
2018-07-12T05:11:29.736Z,1172.00
2018-07-12T05:12:29.713Z,1000.00
2018-07-12T05:13:29.705Z,856.00
2018-07-12T05:14:29.687Z,816.00
2018-07-12T05:15:29.678Z,852.00
2018-07-12T05:16:29.680Z,880.00
2018-07-12T05:17:29.667Z,956.00
2018-07-12T05:18:29.641Z,1056.00
2018-07-12T05:19:29.643Z,1228.00
2018-07-12T05:20:29.617Z,1328.00
2018-07-12T05:21:29.620Z,1340.00
2018-07-12T05:22:29.613Z,1420.00
2018-07-12T05:23:29.591Z,1448.00
2018-07-12T05:24:29.589Z,1532.00
2018-07-12T05:25:29.562Z,1600.00
2018-07-12T05:26:29.576Z,1476.00
2018-07-12T05:27:29.539Z,1304.00
2018-07-12T05:28:29.560Z,1252.00
2018-07-12T05:29:29.518Z,1228.00
2018-07-12T05:30:29.510Z,1608.00
2018-07-12T05:31:29.509Z,1940.00
2018-07-12T05:32:29.492Z,2272.00
2018-07-12T05:33:29.503Z,2416.00
2018-07-12T05:34:29.465Z,2496.00
2018-07-12T05:35:29.472Z,2672.00
2018-07-12T05:36:29.465Z,2676.00
2018-07-12T05:37:29.430Z,2900.00
2018-07-12T05:38:29.424Z,3304.00
2018-07-12T05:39:29.405Z,3732.00
2018-07-12T05:40:29.393Z,4512.00
2018-07-12T05:41:29.405Z,4672.00
2018-07-12T05:42:29.369Z,4656.00
2018-07-12T05:43:29.386Z,5540.00
2018-07-12T05:44:29.375Z,5056.00
2018-07-12T05:45:29.336Z,4416.00
2018-07-12T05:46:29.338Z,3880.00
2018-07-12T05:47:29.315Z,4032.00
2018-07-12T05:48:29.304Z,4652.00
2018-07-12T05:49:29.293Z,4796.00
2018-07-12T05:50:29.282Z,5080.00
2018-07-12T05:51:29.288Z,6344.00
2018-07-12T05:52:29.257Z,7308.00
2018-07-12T05:53:29.250Z,8212.00
2018-07-12T05:54:29.235Z,8848.00
2018-07-12T05:55:29.235Z,9596.00
2018-07-12T05:56:29.234Z,11132.00
2018-07-12T05:57:29.246Z,12288.00
2018-07-12T05:58:29.188Z,10352.00
2018-07-12T05:59:29.186Z,8712.00
2018-07-12T06:00:29.168Z,7644.00
2018-07-12T06:01:29.209Z,8244.00
2018-07-12T06:02:29.145Z,8128.00
2018-07-12T06:03:29.132Z,7876.00
2018-07-12T06:04:29.128Z,7068.00
2018-07-12T06:05:29.112Z,5872.00
2018-07-12T06:06:29.119Z,5716.00
2018-07-12T06:07:29.094Z,5104.00
2018-07-12T06:08:29.083Z,4276.00
2018-07-12T06:09:29.069Z,4156.00
2018-07-12T06:10:29.065Z,4248.00
2018-07-12T06:11:29.061Z,4180.00
2018-07-12T06:12:29.033Z,4172.00
2018-07-12T06:13:29.029Z,4492.00
2018-07-12T06:14:29.010Z,4608.00
2018-07-12T06:15:28.999Z,4556.00
2018-07-12T06:16:29.042Z,4584.00
2018-07-12T06:17:28.975Z,4736.00
2018-07-12T06:18:28.975Z,5092.00
2018-07-12T06:19:29.030Z,5116.00
2018-07-12T06:20:29.023Z,4992.00
2018-07-12T06:21:28.983Z,4900.00
2018-07-12T06:22:28.938Z,4668.00
2018-07-12T06:23:28.911Z,4428.00
2018-07-12T06:24:28.936Z,4560.00
2018-07-12T06:25:28.894Z,5116.00
2018-07-12T06:26:28.894Z,6228.00
2018-07-12T06:27:28.901Z,6752.00
2018-07-12T06:28:28.887Z,6308.00
2018-07-12T06:29:28.920Z,5272.00
2018-07-12T06:30:28.829Z,4296.00
2018-07-12T06:31:28.833Z,3504.00
2018-07-12T06:32:28.811Z,2944.00
2018-07-12T06:33:28.799Z,2588.00
2018-07-12T06:34:28.796Z,2396.00
2018-07-12T06:35:28.780Z,2344.00
2018-07-12T06:36:28.831Z,2216.00
2018-07-12T06:37:28.752Z,2048.00
2018-07-12T06:38:28.739Z,2016.00
2018-07-12T06:39:28.740Z,2048.00
2018-07-12T06:40:28.722Z,2332.00
2018-07-12T06:41:28.763Z,2516.00
2018-07-12T06:42:28.752Z,2688.00
2018-07-12T06:43:28.687Z,3424.00
2018-07-12T06:44:28.674Z,4148.00
2018-07-12T06:45:28.704Z,4764.00
2018-07-12T06:46:28.684Z,5956.00
2018-07-12T06:47:28.655Z,7428.00
2018-07-12T06:48:28.628Z,7992.00
2018-07-12T06:49:28.628Z,6944.00
2018-07-12T06:50:28.606Z,5708.00
2018-07-12T06:51:28.639Z,5208.00
2018-07-12T06:52:28.582Z,5016.00
2018-07-12T06:53:28.574Z,4420.00
2018-07-12T06:54:28.569Z,4068.00
2018-07-12T06:55:28.552Z,3888.00
2018-07-12T06:56:28.540Z,3924.00
2018-07-12T06:57:28.550Z,4236.00
2018-07-12T06:58:28.516Z,4760.00
2018-07-12T06:59:28.503Z,5192.00
2018-07-12T07:00:28.502Z,4848.00
2018-07-12T07:01:28.477Z,4812.00
2018-07-12T07:02:28.499Z,5488.00
2018-07-12T07:03:28.460Z,6360.00
2018-07-12T07:04:28.473Z,7116.00
2018-07-12T07:05:28.434Z,7172.00
2018-07-12T07:06:28.424Z,6724.00
2018-07-12T07:07:28.444Z,5732.00
2018-07-12T07:08:28.419Z,5004.00
2018-07-12T07:09:28.389Z,4692.00
2018-07-12T07:10:28.398Z,4912.00
2018-07-12T07:11:28.382Z,4840.00
2018-07-12T07:12:28.388Z,5904.00
2018-07-12T07:13:28.362Z,6256.00
2018-07-12T07:14:28.337Z,6904.00
2018-07-12T07:15:28.324Z,8456.00
2018-07-12T07:16:28.318Z,9028.00
2018-07-12T07:17:28.329Z,7948.00
2018-07-12T07:18:28.290Z,6692.00
2018-07-12T07:19:28.277Z,6828.00
2018-07-12T07:20:28.270Z,6032.00
2018-07-12T07:21:28.257Z,6460.00
2018-07-12T07:22:28.259Z,6460.00
2018-07-12T07:23:28.235Z,5984.00
2018-07-12T07:24:28.223Z,5392.00
2018-07-12T07:25:28.212Z,5632.00
2018-07-12T07:26:28.201Z,7160.00
2018-07-12T07:27:28.210Z,8520.00
2018-07-12T07:28:28.177Z,10700.00
2018-07-12T07:29:28.168Z,11632.00
2018-07-12T07:30:28.154Z,12128.00
2018-07-12T07:31:28.145Z,15576.00
2018-07-12T07:32:28.164Z,20064.00
2018-07-12T07:33:28.130Z,25952.00
2018-07-12T07:34:28.107Z,41472.00
2018-07-12T07:35:28.101Z,76896.00
2018-07-12T07:36:28.088Z,85376.00
2018-07-12T07:37:28.094Z,35840.00
2018-07-12T07:38:28.066Z,23936.00
2018-07-12T07:39:28.057Z,65120.00
2018-07-12T07:40:28.045Z,76064.00
2018-07-12T07:41:28.033Z,14892.00
2018-07-12T07:42:28.095Z,15380.00
2018-07-12T07:43:28.016Z,22176.00
2018-07-12T07:44:27.996Z,10464.00
2018-07-12T07:45:27.987Z,11552.00
2018-07-12T07:46:27.974Z,10124.00
2018-07-12T07:47:27.982Z,12036.00
2018-07-12T07:48:27.951Z,19072.00
2018-07-12T07:49:27.942Z,68640.00
2018-07-12T07:50:27.932Z,77920.00
2018-07-12T07:51:27.922Z,20832.00
2018-07-12T07:52:27.963Z,82976.00
2018-07-12T07:53:27.903Z,79808.00
2018-07-12T07:54:27.893Z,58464.00
2018-07-12T07:55:27.873Z,91040.00
2018-07-12T07:56:27.861Z,78944.00
2018-07-12T07:57:27.871Z,22816.00
2018-07-12T07:58:27.839Z,56800.00
2018-07-12T07:59:27.828Z,30464.00
2018-07-12T08:00:27.818Z,19968.00
2018-07-12T08:01:27.811Z,17984.00
2018-07-12T08:02:27.821Z,46112.00
2018-07-12T08:03:27.831Z,24544.00
2018-07-12T08:04:27.804Z,22560.00
2018-07-12T08:05:27.952Z,24960.00
2018-07-12T08:06:27.749Z,18752.00
2018-07-12T08:07:27.801Z,16288.00
2018-07-12T08:08:27.740Z,15188.00
2018-07-12T08:09:27.726Z,15672.00
2018-07-12T08:10:27.708Z,13156.00
2018-07-12T08:11:27.697Z,11116.00
2018-07-12T08:12:27.711Z,10640.00
2018-07-12T08:13:27.679Z,10124.00
2018-07-12T08:14:27.693Z,9464.00
2018-07-12T08:15:27.660Z,7952.00
2018-07-12T08:16:27.664Z,7724.00
2018-07-12T08:17:27.736Z,9380.00
2018-07-12T08:18:27.642Z,10772.00
2018-07-12T08:19:27.608Z,12588.00
2018-07-12T08:20:27.598Z,16864.00
2018-07-12T08:21:27.580Z,119616.00
2018-07-12T08:22:27.591Z,112736.00
2018-07-12T08:23:27.608Z,119392.00
2018-07-12T08:24:27.582Z,122528.00
2018-07-12T08:25:27.543Z,117664.00
2018-07-12T08:26:27.528Z,121344.00
2018-07-12T08:27:27.554Z,121760.00
2018-07-12T08:28:27.502Z,117504.00
2018-07-12T08:29:27.498Z,123904.00
2018-07-12T08:30:27.488Z,122016.00
2018-07-12T08:31:27.495Z,120160.00
2018-07-12T08:32:27.465Z,105088.00
2018-07-12T08:33:27.555Z,123136.00
2018-07-12T08:34:27.444Z,102112.00
2018-07-12T08:35:27.431Z,30496.00
2018-07-12T08:36:27.441Z,30048.00
2018-07-12T08:37:27.402Z,29280.00
2018-07-12T08:38:27.412Z,121408.00
2018-07-12T08:39:27.385Z,61312.00
2018-07-12T08:40:27.431Z,110912.00
2018-07-12T08:41:27.360Z,81248.00
2018-07-12T08:42:27.369Z,51328.00
2018-07-12T08:43:27.352Z,117632.00
2018-07-12T08:44:27.372Z,61184.00
2018-07-12T08:45:27.358Z,49120.00
2018-07-12T08:46:27.335Z,70112.00
2018-07-12T08:47:27.291Z,32864.00
2018-07-12T08:48:27.358Z,21216.00
2018-07-12T08:49:27.269Z,21760.00
2018-07-12T08:50:27.287Z,17504.00
2018-07-12T08:51:27.246Z,17312.00
2018-07-12T08:52:27.243Z,15500.00
2018-07-12T08:53:27.242Z,14540.00
2018-07-12T08:54:27.235Z,16576.00
2018-07-12T08:55:27.968Z,20576.00
2018-07-12T08:56:27.240Z,25824.00
2018-07-12T08:57:27.223Z,61344.00
2018-07-12T08:58:27.188Z,20320.00
2018-07-12T08:59:27.159Z,18784.00
2018-07-12T09:00:27.148Z,19456.00
2018-07-12T09:01:27.131Z,19296.00
2018-07-12T09:02:27.184Z,21504.00
2018-07-12T09:03:27.130Z,29472.00
2018-07-12T09:04:27.100Z,31904.00
2018-07-12T09:05:27.105Z,18208.00
2018-07-12T09:06:27.077Z,13744.00
2018-07-12T09:07:27.105Z,11924.00
2018-07-12T09:08:27.071Z,11416.00
2018-07-12T09:09:27.044Z,11100.00
2018-07-12T09:10:27.039Z,12092.00
2018-07-12T09:11:27.072Z,12144.00
2018-07-12T09:12:27.017Z,11560.00
2018-07-12T09:13:27.015Z,11388.00
2018-07-12T09:14:26.990Z,12888.00
2018-07-12T09:15:26.985Z,14592.00
2018-07-12T09:16:26.963Z,15552.00
2018-07-12T09:17:26.959Z,16384.00
2018-07-12T09:18:26.959Z,16224.00
2018-07-12T09:19:26.943Z,17504.00
2018-07-12T09:20:26.921Z,16256.00
2018-07-12T09:21:26.920Z,16224.00
2018-07-12T09:22:26.899Z,16064.00
2018-07-12T09:23:26.903Z,15188.00
2018-07-12T09:24:26.890Z,14416.00
2018-07-12T09:25:26.883Z,13032.00
2018-07-12T09:26:26.864Z,12368.00
2018-07-12T09:27:26.845Z,12084.00
2018-07-12T09:28:26.846Z,11876.00
2018-07-12T09:29:26.823Z,10308.00
2018-07-12T09:30:26.818Z,8548.00
2018-07-12T09:31:26.800Z,8432.00
2018-07-12T09:32:26.789Z,8900.00
2018-07-12T09:33:26.786Z,8944.00
2018-07-12T09:34:26.770Z,8408.00
2018-07-12T09:35:26.765Z,8216.00
2018-07-12T09:36:26.760Z,7916.00
2018-07-12T09:37:26.733Z,7656.00
2018-07-12T09:38:26.734Z,7588.00
2018-07-12T09:39:26.720Z,7700.00
2018-07-12T09:40:26.698Z,7276.00
2018-07-12T09:41:26.698Z,6940.00
2018-07-12T09:42:26.676Z,6988.00
2018-07-12T09:43:26.694Z,7656.00
2018-07-12T09:44:26.703Z,8168.00
2018-07-12T09:45:26.641Z,8976.00
2018-07-12T09:46:26.693Z,10220.00
2018-07-12T09:47:26.632Z,10708.00
2018-07-12T09:48:26.609Z,11028.00
2018-07-12T09:49:26.616Z,12452.00
2018-07-12T09:50:26.590Z,13792.00
2018-07-12T09:51:26.609Z,18976.00
2018-07-12T09:52:26.569Z,16896.00
2018-07-12T09:53:26.554Z,18656.00
2018-07-12T09:54:26.561Z,19328.00
2018-07-12T09:55:26.528Z,30336.00
2018-07-12T09:56:26.562Z,31776.00
2018-07-12T09:57:26.517Z,54720.00
2018-07-12T09:58:26.500Z,82016.00
2018-07-12T09:59:26.501Z,75392.00
2018-07-12T10:00:26.470Z,43488.00
2018-07-12T10:01:26.462Z,57760.00
2018-07-12T10:02:26.459Z,25888.00
2018-07-12T10:03:26.968Z,18368.00
2018-07-12T10:04:26.445Z,15364.00
2018-07-12T10:05:26.417Z,12872.00
2018-07-12T10:06:26.413Z,12376.00
2018-07-12T10:07:26.400Z,11016.00
2018-07-12T10:08:26.408Z,10704.00
2018-07-12T10:09:26.385Z,10588.00
2018-07-12T10:10:26.363Z,9012.00
2018-07-12T10:11:26.349Z,8700.00
2018-07-12T10:12:26.348Z,7656.00
2018-07-12T10:13:26.325Z,8320.00
2018-07-12T10:14:26.333Z,9652.00
2018-07-12T10:15:26.304Z,11248.00
2018-07-12T10:16:26.295Z,10808.00
2018-07-12T10:17:26.294Z,11388.00
2018-07-12T10:18:26.308Z,11520.00
2018-07-12T10:19:26.275Z,11444.00
2018-07-12T10:20:26.260Z,12592.00
2018-07-12T10:21:26.236Z,12280.00
2018-07-12T10:22:26.237Z,14356.00
2018-07-12T10:23:26.221Z,12580.00
2018-07-12T10:24:26.215Z,9668.00
2018-07-12T10:25:26.206Z,9484.00
2018-07-12T10:26:26.203Z,10408.00
2018-07-12T10:27:26.192Z,10180.00
2018-07-12T10:28:26.159Z,9304.00
2018-07-12T10:29:26.184Z,9532.00
2018-07-12T10:30:26.140Z,9180.00
2018-07-12T10:31:26.122Z,9372.00
2018-07-12T10:32:26.119Z,10832.00
2018-07-12T10:33:26.102Z,12336.00
2018-07-12T10:34:26.105Z,13608.00
2018-07-12T10:35:26.287Z,14976.00
2018-07-12T10:36:26.072Z,15444.00
2018-07-12T10:37:26.063Z,14900.00
2018-07-12T10:38:26.060Z,15088.00
2018-07-12T10:39:26.061Z,14540.00
2018-07-12T10:40:26.051Z,14612.00
2018-07-12T10:41:26.013Z,13872.00
2018-07-12T10:42:26.014Z,14248.00
2018-07-12T10:43:27.125Z,13276.00
2018-07-12T10:44:26.046Z,11464.00
2018-07-12T10:45:25.967Z,10480.00
2018-07-12T10:46:25.956Z,11784.00
2018-07-12T10:47:25.947Z,14076.00
2018-07-12T10:48:25.932Z,16352.00
2018-07-12T10:49:25.950Z,18720.00
2018-07-12T10:50:25.918Z,19008.00
2018-07-12T10:51:25.905Z,18112.00
2018-07-12T10:52:25.887Z,16288.00
2018-07-12T10:53:25.876Z,14152.00
2018-07-12T10:54:25.936Z,13936.00
2018-07-12T10:55:25.857Z,15532.00
2018-07-12T10:56:25.844Z,16352.00
2018-07-12T10:57:25.831Z,15788.00
2018-07-12T10:58:25.828Z,14892.00
2018-07-12T10:59:25.825Z,14164.00
2018-07-12T11:00:25.802Z,13240.00
2018-07-12T11:01:25.787Z,13164.00
2018-07-12T11:02:25.781Z,13212.00
2018-07-12T11:03:25.764Z,13340.00
2018-07-12T11:04:25.763Z,12928.00
2018-07-12T11:05:25.763Z,12932.00
2018-07-12T11:06:25.733Z,14816.00
2018-07-12T11:07:25.723Z,17536.00
2018-07-12T11:08:25.711Z,19488.00
2018-07-12T11:09:25.703Z,20768.00
2018-07-12T11:10:25.724Z,21856.00
2018-07-12T11:11:25.676Z,21696.00
2018-07-12T11:12:25.665Z,21152.00
2018-07-12T11:13:25.659Z,20800.00
2018-07-12T11:14:25.641Z,19328.00
2018-07-12T11:15:25.647Z,17024.00
2018-07-12T11:16:25.622Z,15800.00
2018-07-12T11:17:25.607Z,15300.00
2018-07-12T11:18:25.597Z,16352.00
2018-07-12T11:19:25.585Z,16032.00
2018-07-12T11:20:25.610Z,14820.00
2018-07-12T11:21:25.594Z,13188.00
2018-07-12T11:22:25.551Z,10376.00
2018-07-12T11:23:25.541Z,11016.00
2018-07-12T11:24:25.539Z,12356.00
2018-07-12T11:25:25.548Z,14364.00
2018-07-12T11:26:25.545Z,17472.00
2018-07-12T11:27:25.496Z,17024.00
2018-07-12T11:28:25.496Z,14840.00
2018-07-12T11:29:25.476Z,10404.00
2018-07-12T11:30:25.484Z,8044.00
2018-07-12T11:31:25.456Z,8240.00
2018-07-12T11:32:25.442Z,8080.00
2018-07-12T11:33:25.429Z,8884.00
2018-07-12T11:34:25.421Z,8784.00
2018-07-12T11:35:25.432Z,9244.00
2018-07-12T11:36:25.401Z,11668.00
2018-07-12T11:37:25.395Z,12184.00
2018-07-12T11:38:25.404Z,11420.00
2018-07-12T11:39:25.364Z,9524.00
2018-07-12T11:40:25.399Z,8304.00
2018-07-12T11:41:25.342Z,7812.00
2018-07-12T11:42:25.328Z,7088.00
2018-07-12T11:43:25.316Z,7464.00
2018-07-12T11:44:25.310Z,8664.00
2018-07-12T11:45:25.323Z,9404.00
2018-07-12T11:46:25.285Z,11132.00
2018-07-12T11:47:25.274Z,12940.00
2018-07-12T11:48:25.260Z,13680.00
2018-07-12T11:49:25.249Z,15556.00
2018-07-12T11:50:25.259Z,16224.00
2018-07-12T11:51:25.227Z,16608.00
2018-07-12T11:52:25.219Z,16224.00
2018-07-12T11:53:25.206Z,12312.00
2018-07-12T11:54:25.196Z,10020.00
2018-07-12T11:55:25.201Z,8960.00
2018-07-12T11:56:25.179Z,8248.00
2018-07-12T11:57:25.160Z,7464.00
2018-07-12T11:58:25.153Z,7060.00
2018-07-12T11:59:25.141Z,6804.00
2018-07-12T12:00:25.150Z,6924.00
2018-07-12T12:01:25.135Z,6940.00
2018-07-12T12:02:25.108Z,6484.00
2018-07-12T12:03:25.099Z,5932.00
2018-07-12T12:04:25.089Z,5720.00
2018-07-12T12:05:25.087Z,5004.00
2018-07-12T12:06:25.067Z,5016.00
2018-07-12T12:07:25.053Z,5936.00
2018-07-12T12:08:25.039Z,6736.00
2018-07-12T12:09:25.035Z,7784.00
2018-07-12T12:10:25.029Z,7440.00
2018-07-12T12:11:25.011Z,6700.00
2018-07-12T12:12:24.998Z,6296.00
2018-07-12T12:13:24.984Z,6040.00
2018-07-12T12:14:24.973Z,5848.00
2018-07-12T12:15:24.976Z,5464.00
2018-07-12T12:16:24.950Z,5128.00
2018-07-12T12:17:24.947Z,5048.00
2018-07-12T12:18:24.929Z,5048.00
2018-07-12T12:19:24.935Z,5104.00
2018-07-12T12:20:24.929Z,5732.00
2018-07-12T12:21:25.887Z,5948.00
2018-07-12T12:22:24.882Z,6028.00
2018-07-12T12:23:24.884Z,6312.00
2018-07-12T12:24:24.882Z,7144.00
2018-07-12T12:25:24.937Z,8776.00
2018-07-12T12:26:24.842Z,10520.00
2018-07-12T12:27:24.888Z,12712.00
2018-07-12T12:28:24.818Z,13356.00
2018-07-12T12:29:24.804Z,12660.00
2018-07-12T12:30:24.793Z,11404.00
2018-07-12T12:31:24.799Z,9808.00
2018-07-12T12:32:24.773Z,9376.00
2018-07-12T12:33:24.827Z,9088.00
2018-07-12T12:34:24.750Z,10264.00
2018-07-12T12:35:24.736Z,11900.00
2018-07-12T12:36:24.743Z,13556.00
2018-07-12T12:37:24.720Z,14088.00
2018-07-12T12:38:24.704Z,13596.00
2018-07-12T12:39:24.695Z,12620.00
2018-07-12T12:40:24.682Z,11176.00
2018-07-12T12:41:24.688Z,9184.00
2018-07-12T12:42:24.659Z,7112.00
2018-07-12T12:43:24.652Z,5188.00
2018-07-12T12:44:24.640Z,3536.00
2018-07-12T12:45:24.625Z,2856.00
2018-07-12T12:46:24.628Z,2616.00
2018-07-12T12:47:24.604Z,2560.00
2018-07-12T12:48:24.599Z,2824.00
2018-07-12T12:49:24.585Z,3248.00
2018-07-12T12:50:24.571Z,3384.00
2018-07-12T12:51:24.574Z,3164.00
2018-07-12T12:52:24.549Z,2948.00
2018-07-12T12:53:24.539Z,2712.00
2018-07-12T12:54:24.528Z,2396.00
2018-07-12T12:55:24.523Z,2008.00
2018-07-12T12:56:24.517Z,1628.00
2018-07-12T12:57:24.496Z,1356.00
2018-07-12T12:58:24.484Z,1144.00
2018-07-12T12:59:24.472Z,1028.00
2018-07-12T13:00:24.462Z,1072.00
2018-07-12T13:01:24.479Z,1436.00
2018-07-12T13:02:24.443Z,1892.00
2018-07-12T13:03:24.430Z,2328.00
2018-07-12T13:04:24.431Z,2812.00
2018-07-12T13:05:24.405Z,3440.00
2018-07-12T13:06:24.404Z,4260.00
2018-07-12T13:07:24.382Z,5444.00
2018-07-12T13:08:24.371Z,6880.00
2018-07-12T13:09:24.363Z,7940.00
2018-07-12T13:10:24.384Z,8768.00
2018-07-12T13:11:24.355Z,9552.00
2018-07-12T13:12:24.328Z,10220.00
2018-07-12T13:13:24.314Z,10516.00
2018-07-12T13:14:24.307Z,10692.00
2018-07-12T13:15:24.291Z,10544.00
2018-07-12T13:16:24.294Z,10184.00
2018-07-12T13:17:24.272Z,9948.00
2018-07-12T13:18:24.258Z,9412.00
2018-07-12T13:19:24.249Z,9112.00
2018-07-12T13:20:24.235Z,8744.00
2018-07-12T13:21:24.250Z,8632.00
2018-07-12T13:22:24.232Z,8264.00
2018-07-12T13:23:24.202Z,7784.00
2018-07-12T13:24:24.197Z,7244.00
2018-07-12T13:25:24.212Z,6748.00
2018-07-12T13:26:24.188Z,6248.00
2018-07-12T13:27:24.159Z,5848.00
2018-07-12T13:28:24.148Z,5436.00
2018-07-12T13:29:24.136Z,5016.00
2018-07-12T13:30:24.175Z,4640.00
2018-07-12T13:31:24.132Z,4388.00
2018-07-12T13:32:24.106Z,4192.00
2018-07-12T13:33:24.100Z,3960.00
2018-07-12T13:34:24.080Z,3660.00
2018-07-12T13:35:24.069Z,3456.00
2018-07-12T13:36:24.080Z,3256.00
2018-07-12T13:37:24.047Z,3152.00
2018-07-12T13:38:24.039Z,3072.00
2018-07-12T13:39:24.028Z,3120.00
2018-07-12T13:40:24.015Z,3204.00
2018-07-12T13:41:24.017Z,3288.00
2018-07-12T13:42:23.995Z,3344.00
2018-07-12T13:43:23.985Z,3424.00
2018-07-12T13:44:23.967Z,3564.00
2018-07-12T13:45:23.957Z,3792.00
2018-07-12T13:46:23.963Z,4088.00
2018-07-12T13:47:23.936Z,4460.00
2018-07-12T13:48:23.928Z,4984.00
2018-07-12T13:49:23.913Z,5800.00
2018-07-12T13:50:23.909Z,6596.00
2018-07-12T13:51:23.904Z,7316.00
2018-07-12T13:52:23.879Z,7856.00
2018-07-12T13:53:23.867Z,8340.00
2018-07-12T13:54:23.856Z,8728.00
2018-07-12T13:55:23.851Z,9032.00
2018-07-12T13:56:23.850Z,9296.00
2018-07-12T13:57:23.824Z,9420.00
2018-07-12T13:58:23.837Z,9180.00
2018-07-12T13:59:23.804Z,8840.00
2018-07-12T14:00:23.796Z,8724.00
2018-07-12T14:01:23.790Z,8912.00
2018-07-12T14:02:23.774Z,9084.00
2018-07-12T14:03:23.755Z,9116.00
2018-07-12T14:04:23.748Z,9128.00
2018-07-12T14:05:23.734Z,9244.00
2018-07-12T14:06:23.758Z,9416.00
2018-07-12T14:07:23.710Z,9636.00
2018-07-12T14:08:23.701Z,9812.00
2018-07-12T14:09:23.689Z,9988.00
2018-07-12T14:10:23.676Z,10120.00
2018-07-12T14:11:23.672Z,10156.00
2018-07-12T14:12:23.671Z,10088.00
2018-07-12T14:13:23.644Z,9988.00
2018-07-12T14:14:23.635Z,9720.00
2018-07-12T14:15:23.624Z,9420.00
2018-07-12T14:16:23.617Z,9040.00
2018-07-12T14:17:23.617Z,8324.00
2018-07-12T14:18:23.643Z,7476.00
2018-07-12T14:19:23.578Z,6936.00
2018-07-12T14:20:23.564Z,6504.00
2018-07-12T14:21:23.555Z,6148.00
2018-07-12T14:22:23.556Z,5864.00
2018-07-12T14:23:23.534Z,5536.00
2018-07-12T14:24:23.524Z,5140.00
2018-07-12T14:25:23.511Z,4732.00
2018-07-12T14:26:23.513Z,4472.00
2018-07-12T14:27:23.503Z,4292.00
2018-07-12T14:28:23.480Z,4136.00
2018-07-12T14:29:23.467Z,3920.00
2018-07-12T14:30:23.456Z,3808.00
2018-07-12T14:31:23.443Z,3740.00
2018-07-12T14:32:23.450Z,3644.00
2018-07-12T14:33:23.425Z,3684.00
2018-07-12T14:34:23.411Z,3920.00
2018-07-12T14:35:23.399Z,4000.00
2018-07-12T14:36:23.387Z,3904.00
2018-07-12T14:37:23.391Z,3984.00
2018-07-12T14:38:23.363Z,3764.00
2018-07-12T14:39:23.381Z,3976.00
2018-07-12T14:40:23.349Z,4452.00
2018-07-12T14:41:23.334Z,4540.00
2018-07-12T14:42:23.339Z,4380.00
2018-07-12T14:43:23.309Z,4152.00
2018-07-12T14:44:23.300Z,3788.00
2018-07-12T14:45:23.288Z,3388.00
2018-07-12T14:46:23.277Z,2992.00
2018-07-12T14:47:23.285Z,2680.00
2018-07-12T14:48:23.256Z,2500.00
2018-07-12T14:49:23.251Z,2376.00
2018-07-12T14:50:23.231Z,2320.00
2018-07-12T14:51:23.219Z,2420.00
2018-07-12T14:52:23.234Z,2764.00
2018-07-12T14:53:23.215Z,3176.00
2018-07-12T14:54:23.241Z,3536.00
2018-07-12T14:55:23.178Z,3752.00
2018-07-12T14:56:23.171Z,3868.00
2018-07-12T14:57:23.165Z,3760.00
2018-07-12T14:58:23.175Z,3520.00
2018-07-12T14:59:23.129Z,3164.00
2018-07-12T15:00:23.122Z,2672.00
2018-07-12T15:01:23.136Z,2096.00
2018-07-12T15:02:23.161Z,1676.00
2018-07-12T15:03:23.088Z,1476.00
2018-07-12T15:04:23.079Z,1484.00
2018-07-12T15:05:23.073Z,1500.00
2018-07-12T15:06:23.060Z,1400.00
2018-07-12T15:07:23.055Z,1340.00
2018-07-12T15:08:23.034Z,1376.00
2018-07-12T15:09:23.150Z,1740.00
2018-07-12T15:10:23.014Z,2140.00
2018-07-12T15:11:22.998Z,2636.00
2018-07-12T15:12:23.006Z,2936.00
2018-07-12T15:13:22.973Z,3400.00
2018-07-12T15:14:22.962Z,3784.00
2018-07-12T15:15:22.952Z,4320.00
2018-07-12T15:16:22.942Z,4872.00
2018-07-12T15:17:22.950Z,5232.00
2018-07-12T15:18:22.929Z,5524.00
2018-07-12T15:19:22.940Z,5844.00
2018-07-12T15:20:22.896Z,6208.00
2018-07-12T15:21:22.888Z,6432.00
2018-07-12T15:22:22.888Z,6468.00
2018-07-12T15:23:22.868Z,6324.00
2018-07-12T15:24:22.850Z,5992.00
2018-07-12T15:25:22.840Z,5828.00
2018-07-12T15:26:22.868Z,5752.00
2018-07-12T15:27:22.850Z,5948.00
2018-07-12T15:28:22.806Z,6052.00
2018-07-12T15:29:22.818Z,5820.00
2018-07-12T15:30:22.789Z,5872.00
2018-07-12T15:31:22.772Z,6192.00
2018-07-12T15:32:22.775Z,6536.00
2018-07-12T15:33:22.751Z,6648.00
2018-07-12T15:34:22.742Z,6668.00
2018-07-12T15:35:22.737Z,6764.00
2018-07-12T15:36:22.724Z,6440.00
2018-07-12T15:37:22.725Z,5996.00
2018-07-12T15:38:22.700Z,5576.00
2018-07-12T15:39:22.693Z,5172.00
2018-07-12T15:40:22.675Z,4800.00
2018-07-12T15:41:22.680Z,4484.00
2018-07-12T15:42:22.656Z,4276.00
2018-07-12T15:43:22.652Z,4236.00
2018-07-12T15:44:22.629Z,4364.00
2018-07-12T15:45:22.620Z,4592.00
2018-07-12T15:46:22.605Z,4756.00
2018-07-12T15:47:22.594Z,4780.00
2018-07-12T15:48:22.597Z,4688.00
2018-07-12T15:49:22.571Z,4624.00
2018-07-12T15:50:22.559Z,4724.00
2018-07-12T15:51:22.552Z,4884.00
2018-07-12T15:52:22.604Z,5176.00
2018-07-12T15:53:22.563Z,5364.00
2018-07-12T15:54:22.516Z,5304.00
2018-07-12T15:55:22.504Z,5188.00
2018-07-12T15:56:22.493Z,4984.00
2018-07-12T15:57:22.488Z,4704.00
2018-07-12T15:58:22.488Z,4464.00